createdAt,value
2019-02-28T00:02:25.162Z,24.30
2019-02-28T00:04:51.848Z,16.93
2019-02-28T00:07:18.686Z,23.80
2019-02-28T00:09:45.376Z,22.35
2019-02-28T00:12:13.706Z,22.67
2019-02-28T00:14:40.925Z,19.27
2019-02-28T00:17:09.158Z,22.30
2019-02-28T00:19:35.988Z,20.65
2019-02-28T00:22:02.646Z,20.72
2019-02-28T00:24:30.072Z,23.30
2019-02-28T00:26:57.408Z,23.87
2019-02-28T00:29:23.973Z,25.02
2019-02-28T00:31:50.815Z,18.75
2019-02-28T00:34:17.389Z,21.30
2019-02-28T00:36:44.078Z,24.90
2019-02-28T00:39:10.667Z,23.05
2019-02-28T00:41:42.903Z,21.25
2019-02-28T00:44:05.853Z,25.20
2019-02-28T00:46:32.426Z,23.85
2019-02-28T00:48:59.003Z,24.70
2019-02-28T00:51:25.607Z,27.05
2019-02-28T00:53:52.191Z,24.80
2019-02-28T00:56:18.762Z,26.48
2019-02-28T00:58:45.361Z,27.55
2019-02-28T01:01:12.897Z,25.57
2019-02-28T01:03:39.515Z,25.45
2019-02-28T01:06:09.768Z,26.10
2019-02-28T01:08:34.567Z,27.02
2019-02-28T01:11:01.176Z,26.17
2019-02-28T01:13:28.190Z,28.50
2019-02-28T01:15:54.958Z,25.88
2019-02-28T01:18:21.534Z,27.30
2019-02-28T01:20:50.684Z,28.60
2019-02-28T01:23:16.807Z,30.72
2019-02-28T01:25:43.372Z,26.40
2019-02-28T01:28:09.955Z,29.55
2019-02-28T01:30:37.101Z,26.87
2019-02-28T01:33:05.007Z,29.77
2019-02-28T01:35:31.605Z,30.00
2019-02-28T01:37:58.183Z,31.00
2019-02-28T01:40:24.766Z,35.28
2019-02-28T01:42:54.903Z,35.63
2019-02-28T01:45:19.859Z,35.80
2019-02-28T01:47:46.458Z,32.88
2019-02-28T01:50:13.049Z,37.93
2019-02-28T01:52:44.326Z,40.17
2019-02-28T01:55:08.170Z,44.23
2019-02-28T01:57:34.737Z,42.13
2019-02-28T02:00:02.441Z,41.63
2019-02-28T02:02:29.043Z,38.60
2019-02-28T02:04:55.624Z,45.15
2019-02-28T02:07:22.210Z,40.33
2019-02-28T02:09:48.951Z,41.75
2019-02-28T02:12:15.546Z,43.23
2019-02-28T02:14:44.716Z,45.55
2019-02-28T02:17:10.648Z,37.60
2019-02-28T02:19:37.558Z,40.12
2019-02-28T02:22:09.158Z,44.85
2019-02-28T02:24:33.149Z,49.58
2019-02-28T02:26:59.720Z,44.75
2019-02-28T02:29:26.367Z,44.90
2019-02-28T02:31:54.854Z,50.63
2019-02-28T02:34:24.402Z,52.27
2019-02-28T02:36:54.277Z,54.45
2019-02-28T02:39:18.487Z,53.00
2019-02-28T02:41:45.073Z,51.70
2019-02-28T02:44:11.964Z,51.55
2019-02-28T02:46:38.562Z,59.67
2019-02-28T02:49:05.178Z,58.02
2019-02-28T02:51:31.743Z,54.73
2019-02-28T02:53:58.344Z,57.17
2019-02-28T02:56:24.988Z,55.60
2019-02-28T02:58:51.896Z,56.92
2019-02-28T03:01:23.268Z,54.85
2019-02-28T03:03:47.090Z,60.80
2019-02-28T03:06:14.483Z,62.08
2019-02-28T03:08:41.250Z,56.30
2019-02-28T03:11:07.854Z,51.25
2019-02-28T03:13:41.904Z,52.00
2019-02-28T03:16:03.074Z,58.70
2019-02-28T03:18:30.409Z,58.38
2019-02-28T03:20:57.018Z,60.30
2019-02-28T03:23:23.964Z,59.73
2019-02-28T03:25:50.612Z,62.40
2019-02-28T03:28:17.543Z,56.92
2019-02-28T03:30:44.335Z,55.30
2019-02-28T03:33:24.274Z,62.60
2019-02-28T03:35:42.988Z,61.95
2019-02-28T03:38:12.794Z,61.68
2019-02-28T03:40:40.416Z,66.25
2019-02-28T03:43:07.823Z,61.53
2019-02-28T03:45:35.420Z,59.98
2019-02-28T03:48:02.466Z,61.95
2019-02-28T03:50:29.352Z,59.15
2019-02-28T03:52:56.240Z,65.10
2019-02-28T03:55:23.212Z,62.00
2019-02-28T03:57:49.870Z,60.48
2019-02-28T04:00:17.661Z,66.25
2019-02-28T04:02:44.276Z,68.07
2019-02-28T04:05:11.161Z,64.30
2019-02-28T04:07:37.756Z,64.82
2019-02-28T04:10:04.564Z,64.70
2019-02-28T04:12:31.152Z,64.12
2019-02-28T04:14:57.772Z,64.80
2019-02-28T04:17:29.962Z,65.12
2019-02-28T04:19:58.619Z,67.62
2019-02-28T04:22:23.063Z,66.22
2019-02-28T04:24:49.947Z,68.50
2019-02-28T04:27:16.589Z,67.35
2019-02-28T04:29:43.207Z,67.25
2019-02-28T04:32:09.824Z,65.85
2019-02-28T04:34:36.447Z,71.95
2019-02-28T04:37:03.031Z,72.95
2019-02-28T04:39:29.903Z,69.45
2019-02-28T04:41:56.529Z,70.85
2019-02-28T04:44:23.263Z,68.25
2019-02-28T04:46:49.896Z,69.40
2019-02-28T04:49:21.817Z,70.00
2019-02-28T04:51:45.019Z,72.72
2019-02-28T04:54:11.636Z,69.60
2019-02-28T04:56:38.240Z,79.50
2019-02-28T04:59:04.864Z,75.50
2019-02-28T05:01:31.455Z,77.05
2019-02-28T05:03:59.135Z,79.53
2019-02-28T05:06:26.567Z,79.85
2019-02-28T05:08:53.197Z,79.50
2019-02-28T05:11:19.801Z,78.40
2019-02-28T05:13:48.738Z,75.60
2019-02-28T05:16:14.916Z,97.10
2019-02-28T05:18:41.486Z,90.92
2019-02-28T05:21:08.386Z,84.22
2019-02-28T05:23:36.057Z,86.15
2019-02-28T05:26:03.503Z,84.55
2019-02-28T05:28:30.101Z,86.82
2019-02-28T05:30:56.754Z,81.35
2019-02-28T05:33:23.345Z,74.65
2019-02-28T05:35:50.288Z,80.32
2019-02-28T05:38:20.777Z,85.87
2019-02-28T05:40:45.403Z,86.60
2019-02-28T05:43:11.990Z,90.38
2019-02-28T05:45:38.939Z,93.62
2019-02-28T05:48:05.597Z,92.78
2019-02-28T05:50:32.487Z,95.67
2019-02-28T05:52:59.100Z,95.97
2019-02-28T05:55:25.992Z,93.80
2019-02-28T05:57:52.598Z,101.38
2019-02-28T06:00:20.461Z,101.85
2019-02-28T06:02:47.069Z,94.70
2019-02-28T06:05:13.703Z,98.85
2019-02-28T06:07:40.302Z,96.63
2019-02-28T06:10:07.251Z,100.27
2019-02-28T06:12:33.858Z,97.17
2019-02-28T06:15:03.202Z,106.20
2019-02-28T06:17:29.089Z,98.72
2019-02-28T06:19:55.729Z,105.22
2019-02-28T06:22:22.333Z,108.27
2019-02-28T06:24:49.784Z,109.32
2019-02-28T06:27:16.407Z,100.60
2019-02-28T06:29:43.759Z,107.12
2019-02-28T06:32:10.435Z,108.63
2019-02-28T06:34:39.413Z,101.47
2019-02-28T06:37:05.968Z,105.10
2019-02-28T06:39:32.580Z,99.55
2019-02-28T06:41:59.234Z,110.72
2019-02-28T06:44:27.035Z,102.65
2019-02-28T06:46:54.390Z,101.35
2019-02-28T06:49:21.041Z,96.95
2019-02-28T06:51:51.380Z,98.37
2019-02-28T06:54:18.308Z,103.58
2019-02-28T06:56:45.073Z,93.42
2019-02-28T06:59:11.676Z,102.40
2019-02-28T07:01:38.371Z,110.20
2019-02-28T07:04:04.972Z,103.42
2019-02-28T07:06:35.704Z,89.40
2019-02-28T07:09:02.411Z,99.20
2019-02-28T07:11:28.646Z,97.02
2019-02-28T07:13:55.274Z,97.65
2019-02-28T07:16:21.875Z,91.15
2019-02-28T07:18:52.578Z,97.62
2019-02-28T07:21:17.001Z,101.80
2019-02-28T07:23:43.637Z,85.00
2019-02-28T07:26:10.249Z,95.97
2019-02-28T07:28:37.709Z,94.95
2019-02-28T07:31:04.493Z,100.47
2019-02-28T07:33:31.065Z,110.52
2019-02-28T07:35:57.956Z,92.17
2019-02-28T07:38:25.669Z,106.00
2019-02-28T07:40:53.032Z,94.22
2019-02-28T07:43:19.623Z,87.40
2019-02-28T07:45:46.246Z,97.27
2019-02-28T07:48:12.847Z,91.08
2019-02-28T07:50:39.437Z,100.10
2019-02-28T07:53:08.836Z,99.65
2019-02-28T07:55:34.547Z,94.52
2019-02-28T07:58:01.156Z,101.90
2019-02-28T08:00:27.735Z,93.27
2019-02-28T08:02:54.347Z,99.92
2019-02-28T08:05:20.942Z,88.87
2019-02-28T08:07:52.020Z,109.32
2019-02-28T08:10:17.100Z,96.30
2019-02-28T08:12:43.691Z,92.08
2019-02-28T08:15:22.248Z,89.58
2019-02-28T08:17:46.901Z,91.82
2019-02-28T08:20:13.542Z,80.65
2019-02-28T08:22:40.137Z,100.40
2019-02-28T08:25:08.589Z,89.25
2019-02-28T08:27:35.361Z,91.30
2019-02-28T08:30:01.930Z,96.35
2019-02-28T08:32:28.842Z,92.47
2019-02-28T08:34:59.556Z,91.87
2019-02-28T08:37:24.308Z,88.55
2019-02-28T08:39:50.874Z,90.32
2019-02-28T08:42:17.572Z,101.58
2019-02-28T08:44:44.151Z,98.33
2019-02-28T08:47:10.749Z,94.85
2019-02-28T08:49:41.892Z,88.58
2019-02-28T08:52:06.707Z,90.20
2019-02-28T08:54:33.322Z,91.95
2019-02-28T08:56:59.899Z,94.85
2019-02-28T08:59:26.517Z,86.15
2019-02-28T09:01:53.106Z,85.45
2019-02-28T09:04:19.715Z,89.62
2019-02-28T09:06:46.293Z,80.57
2019-02-28T09:09:14.577Z,86.70
2019-02-28T09:11:41.338Z,89.55
2019-02-28T09:14:07.936Z,84.25
2019-02-28T09:16:36.684Z,83.45
2019-02-28T09:19:03.093Z,88.37
2019-02-28T09:21:29.663Z,92.25
2019-02-28T09:23:56.260Z,78.65
2019-02-28T09:26:22.949Z,87.75
2019-02-28T09:28:49.531Z,84.90
2019-02-28T09:31:16.126Z,81.45
2019-02-28T09:33:42.715Z,85.72
2019-02-28T09:36:09.282Z,85.67
2019-02-28T09:38:35.940Z,87.10
2019-02-28T09:41:04.610Z,84.50
2019-02-28T09:43:31.085Z,81.00
2019-02-28T09:45:57.656Z,82.67
2019-02-28T09:48:24.290Z,80.32
2019-02-28T09:50:50.870Z,85.55
2019-02-28T09:53:17.502Z,77.10
2019-02-28T09:55:44.116Z,81.40
2019-02-28T09:58:10.730Z,82.60
2019-02-28T10:00:38.182Z,79.92
2019-02-28T10:03:06.767Z,91.15
2019-02-28T10:05:33.279Z,92.50
2019-02-28T10:08:02.791Z,83.62
2019-02-28T10:10:28.388Z,94.80
2019-02-28T10:12:56.823Z,86.57
2019-02-28T10:15:23.454Z,87.72
2019-02-28T10:17:50.040Z,90.80
2019-02-28T10:20:19.686Z,88.82
2019-02-28T10:22:47.303Z,86.67
2019-02-28T10:25:14.676Z,89.70
2019-02-28T10:27:41.620Z,91.95
2019-02-28T10:30:15.551Z,93.62
2019-02-28T10:32:40.351Z,96.53
2019-02-28T10:35:08.651Z,98.30
2019-02-28T10:37:35.678Z,99.47
2019-02-28T10:40:02.828Z,93.42
2019-02-28T10:42:29.400Z,100.18
2019-02-28T10:44:56.346Z,99.62
2019-02-28T10:47:28.119Z,102.20
2019-02-28T10:49:51.782Z,94.58
2019-02-28T10:52:18.714Z,96.05
2019-02-28T10:54:48.552Z,90.15
2019-02-28T10:57:13.859Z,104.05
2019-02-28T10:59:40.470Z,108.72
2019-02-28T11:02:07.182Z,105.60
2019-02-28T11:04:33.797Z,103.05
2019-02-28T11:07:02.231Z,109.07
2019-02-28T11:09:29.248Z,104.55
2019-02-28T11:11:55.862Z,98.45
2019-02-28T11:14:22.441Z,102.72
2019-02-28T11:16:49.055Z,98.62
2019-02-28T11:19:18.657Z,101.72
2019-02-28T11:21:44.438Z,109.00
2019-02-28T11:24:11.061Z,105.22
2019-02-28T11:26:37.649Z,104.80
2019-02-28T11:29:04.762Z,106.60
2019-02-28T11:31:31.375Z,107.43
2019-02-28T11:33:57.964Z,109.75
2019-02-28T11:36:24.561Z,106.95
2019-02-28T11:38:52.481Z,108.85
2019-02-28T11:41:19.709Z,96.25
2019-02-28T11:43:46.265Z,107.27
2019-02-28T11:46:12.865Z,109.72
2019-02-28T11:48:39.442Z,99.45
2019-02-28T11:51:06.071Z,100.67
2019-02-28T11:53:40.383Z,99.87
2019-02-28T11:56:05.495Z,105.40
2019-02-28T11:58:32.085Z,102.10
2019-02-28T12:00:58.700Z,104.95
2019-02-28T12:03:25.291Z,99.67
2019-02-28T12:05:51.898Z,96.30
2019-02-28T12:08:18.498Z,96.47
2019-02-28T12:10:45.162Z,96.65
2019-02-28T12:13:11.777Z,97.85
2019-02-28T12:15:39.153Z,94.70
2019-02-28T12:18:11.750Z,93.30
2019-02-28T12:20:38.380Z,96.47
2019-02-28T12:23:04.967Z,90.57
2019-02-28T12:25:31.579Z,95.20
2019-02-28T12:27:59.379Z,95.20
2019-02-28T12:30:27.053Z,95.87
2019-02-28T12:32:54.167Z,96.17
2019-02-28T12:35:20.777Z,95.67
2019-02-28T12:37:47.413Z,97.85
2019-02-28T12:40:16.260Z,91.28
2019-02-28T12:42:42.899Z,92.02
2019-02-28T12:45:13.103Z,89.55
2019-02-28T12:47:41.516Z,103.72
2019-02-28T12:50:08.763Z,90.65
2019-02-28T12:52:37.838Z,88.12
2019-02-28T12:55:06.157Z,90.45
2019-02-28T12:57:33.105Z,93.10
2019-02-28T12:59:59.698Z,96.00
2019-02-28T13:02:26.621Z,81.17
2019-02-28T13:04:53.230Z,82.05
2019-02-28T13:07:19.821Z,88.33
2019-02-28T13:09:48.230Z,84.95
2019-02-28T13:12:15.403Z,81.78
2019-02-28T13:14:42.015Z,88.60
2019-02-28T13:17:08.687Z,87.95
2019-02-28T13:19:35.942Z,87.82
2019-02-28T13:22:02.533Z,87.75
2019-02-28T13:24:29.427Z,87.85
2019-02-28T13:26:56.053Z,84.58
2019-02-28T13:29:22.643Z,78.17
2019-02-28T13:31:49.294Z,83.55
2019-02-28T13:34:15.903Z,82.92
2019-02-28T13:36:42.768Z,74.58
2019-02-28T13:39:09.337Z,71.80
2019-02-28T13:41:36.231Z,90.92
2019-02-28T13:44:03.165Z,75.37
2019-02-28T13:46:33.863Z,77.95
2019-02-28T13:48:58.202Z,74.47
2019-02-28T13:51:24.782Z,71.00
2019-02-28T13:53:51.353Z,71.77
2019-02-28T13:56:18.093Z,75.28
2019-02-28T13:58:44.731Z,76.42
2019-02-28T14:01:11.547Z,81.10
2019-02-28T14:03:38.136Z,81.47
2019-02-28T14:06:04.837Z,78.35
2019-02-28T14:08:31.432Z,83.70
2019-02-28T14:10:58.015Z,86.08
2019-02-28T14:13:24.590Z,83.65
2019-02-28T14:15:52.418Z,90.45
2019-02-28T14:18:20.008Z,84.15
2019-02-28T14:20:46.659Z,90.07
2019-02-28T14:23:13.231Z,89.50
2019-02-28T14:25:41.227Z,93.30
2019-02-28T14:28:07.945Z,89.72
2019-02-28T14:30:34.568Z,89.03
2019-02-28T14:33:01.140Z,103.62
2019-02-28T14:35:27.939Z,101.20
2019-02-28T14:37:55.568Z,112.20
2019-02-28T14:40:23.056Z,104.17
2019-02-28T14:42:49.662Z,108.78
2019-02-28T14:45:16.353Z,104.90
2019-02-28T14:47:43.084Z,108.32
2019-02-28T14:50:10.572Z,117.37
2019-02-28T14:52:39.383Z,113.65
2019-02-28T14:55:08.037Z,109.67
2019-02-28T14:57:34.653Z,107.40
2019-02-28T15:00:06.311Z,110.25
2019-02-28T15:02:29.834Z,107.27
2019-02-28T15:04:56.423Z,110.52
2019-02-28T15:07:23.024Z,114.40
2019-02-28T15:09:49.604Z,112.90
2019-02-28T15:12:16.204Z,112.03
2019-02-28T15:14:43.220Z,112.47
2019-02-28T15:17:10.566Z,113.62
2019-02-28T15:19:37.139Z,105.67
2019-02-28T15:22:03.839Z,105.87
2019-02-28T15:24:30.412Z,111.52
2019-02-28T15:26:56.998Z,117.28
2019-02-28T15:29:24.611Z,107.50
2019-02-28T15:31:53.023Z,111.95
2019-02-28T15:34:19.610Z,112.57
2019-02-28T15:36:46.219Z,110.12
2019-02-28T15:39:12.811Z,111.00
2019-02-28T15:41:39.415Z,109.15
2019-02-28T15:44:05.984Z,115.80
2019-02-28T15:46:32.600Z,112.85
2019-02-28T15:48:59.178Z,116.28
2019-02-28T15:51:29.071Z,115.57
2019-02-28T15:53:54.277Z,115.47
2019-02-28T15:56:20.968Z,112.10
2019-02-28T15:58:47.590Z,108.00
2019-02-28T16:01:14.171Z,123.00
2019-02-28T16:03:40.771Z,116.73
2019-02-28T16:06:07.465Z,115.03
2019-02-28T16:08:34.082Z,108.97
2019-02-28T16:11:03.280Z,112.17
2019-02-28T16:13:29.179Z,112.50
2019-02-28T16:15:55.767Z,113.68
2019-02-28T16:18:22.407Z,118.15
2019-02-28T16:20:48.982Z,115.00
2019-02-28T16:23:15.987Z,115.15
2019-02-28T16:25:42.927Z,118.30
2019-02-28T16:28:09.964Z,125.27
2019-02-28T16:30:36.619Z,120.60
2019-02-28T16:33:03.378Z,117.90
2019-02-28T16:35:29.967Z,122.98
2019-02-28T16:37:56.581Z,122.90
2019-02-28T16:40:26.222Z,121.15
2019-02-28T16:42:52.214Z,111.45
2019-02-28T16:45:25.054Z,114.57
2019-02-28T16:47:51.655Z,115.90
2019-02-28T16:50:18.785Z,110.57
2019-02-28T16:52:46.337Z,119.95
2019-02-28T16:55:12.965Z,115.88
2019-02-28T16:57:43.542Z,114.55
2019-02-28T17:00:09.132Z,118.93
2019-02-28T17:02:35.727Z,118.20
2019-02-28T17:05:02.711Z,119.60
2019-02-28T17:07:29.366Z,119.55
2019-02-28T17:09:55.972Z,115.95
2019-02-28T17:12:46.259Z,121.90
2019-02-28T17:15:23.209Z,121.53
2019-02-28T17:17:53.362Z,115.15
2019-02-28T17:20:20.004Z,119.28
2019-02-28T17:22:46.588Z,121.75
2019-02-28T17:25:14.107Z,119.72
2019-02-28T17:27:46.652Z,119.75
2019-02-28T17:30:38.931Z,114.25
2019-02-28T17:33:08.620Z,122.10
2019-02-28T17:35:34.910Z,124.87
2019-02-28T17:38:01.674Z,115.77
2019-02-28T17:40:28.296Z,117.53
2019-02-28T17:42:54.887Z,118.40
2019-02-28T17:45:27.434Z,118.67
2019-02-28T17:48:34.848Z,124.50
2019-02-28T17:51:05.573Z,120.65
2019-02-28T17:57:05.878Z,114.88
2019-02-28T18:00:16.193Z,126.10
2019-02-28T18:06:12.052Z,126.82
2019-02-28T18:09:00.757Z,126.67
2019-02-28T18:12:17.351Z,128.65
2019-02-28T18:15:09.702Z,130.78
2019-02-28T18:18:18.920Z,128.25
2019-02-28T18:21:17.496Z,117.85
2019-02-28T18:24:24.803Z,131.93
2019-02-28T18:27:38.322Z,145.05
2019-02-28T18:30:42.732Z,147.43
2019-02-28T18:33:10.171Z,143.22
2019-02-28T18:35:37.611Z,145.32
2019-02-28T18:38:04.250Z,150.03
2019-02-28T18:40:30.849Z,164.95
2019-02-28T18:42:57.446Z,163.92
2019-02-28T18:45:24.470Z,164.10
2019-02-28T18:47:51.174Z,144.65
2019-02-28T18:50:17.764Z,138.18
2019-02-28T18:52:45.109Z,141.25
2019-02-28T18:55:11.732Z,120.05
2019-02-28T18:57:38.298Z,118.72
2019-02-28T19:00:08.567Z,108.72
2019-02-28T19:02:37.507Z,95.90
2019-02-28T19:05:04.228Z,89.77
2019-02-28T19:07:30.812Z,81.65
2019-02-28T19:09:57.449Z,84.87
2019-02-28T19:12:24.046Z,73.17
2019-02-28T19:14:50.642Z,81.47
2019-02-28T19:17:17.223Z,68.97
2019-02-28T19:19:43.844Z,71.85
2019-02-28T19:22:11.820Z,62.67
2019-02-28T19:24:38.423Z,68.80
2019-02-28T19:27:05.021Z,62.48
2019-02-28T19:29:31.614Z,67.65
2019-02-28T19:31:58.484Z,68.17
2019-02-28T19:34:25.069Z,71.50
2019-02-28T19:36:51.658Z,67.97
2019-02-28T19:39:18.272Z,75.90
2019-02-28T19:41:44.875Z,83.25
2019-02-28T19:44:11.485Z,89.00
2019-02-28T19:46:38.203Z,95.47
2019-02-28T19:49:04.822Z,87.78
2019-02-28T19:51:31.413Z,97.78
2019-02-28T19:53:58.012Z,112.60
2019-02-28T19:56:24.593Z,105.30
2019-02-28T19:58:51.194Z,129.42
2019-02-28T20:01:19.357Z,132.67
2019-02-28T20:03:46.199Z,126.97
2019-02-28T20:06:12.795Z,131.72
2019-02-28T20:08:39.397Z,144.28
2019-02-28T20:11:05.994Z,154.53
2019-02-28T20:13:32.576Z,176.07
2019-02-28T20:15:59.219Z,157.03
2019-02-28T20:18:25.867Z,151.30
2019-02-28T20:20:52.476Z,154.15
2019-02-28T20:23:19.075Z,175.53
2019-02-28T20:25:45.657Z,166.18
2019-02-28T20:28:12.261Z,171.87
2019-02-28T20:30:38.850Z,174.02
2019-02-28T20:33:05.481Z,170.32
2019-02-28T20:35:32.051Z,157.32
2019-02-28T20:37:58.664Z,185.15
2019-02-28T20:40:25.311Z,173.07
2019-02-28T20:42:52.017Z,181.15
2019-02-28T20:45:18.920Z,203.73
2019-02-28T20:47:45.582Z,170.20
2019-02-28T20:50:15.845Z,164.22
2019-02-28T20:52:42.426Z,198.57
2019-02-28T20:55:09.013Z,191.98
2019-02-28T20:57:35.640Z,158.47
2019-02-28T21:00:03.214Z,161.47
2019-02-28T21:02:29.814Z,164.05
2019-02-28T21:04:56.430Z,196.05
2019-02-28T21:07:23.499Z,184.80
2019-02-28T21:09:50.090Z,177.75
2019-02-28T21:12:16.692Z,168.28
2019-02-28T21:14:43.569Z,199.17
2019-02-28T21:17:10.441Z,187.25
2019-02-28T21:19:37.026Z,210.05
2019-02-28T21:22:03.621Z,204.45
2019-02-28T21:24:30.213Z,175.50
2019-02-28T21:26:56.809Z,165.15
2019-02-28T21:29:23.390Z,171.57
2019-02-28T21:31:50.032Z,165.07
2019-02-28T21:34:18.447Z,187.30
2019-02-28T21:36:45.554Z,170.90
2019-02-28T21:39:12.149Z,160.70
2019-02-28T21:41:38.731Z,155.15
2019-02-28T21:44:05.322Z,155.03
2019-02-28T21:46:32.237Z,180.48
2019-02-28T21:48:58.942Z,182.40
2019-02-28T21:51:25.622Z,172.30
2019-02-28T21:53:52.255Z,200.40
2019-02-28T21:56:18.810Z,189.75
2019-02-28T21:58:45.409Z,174.65
2019-02-28T22:01:11.991Z,152.80
2019-02-28T22:03:38.604Z,158.87
2019-02-28T22:06:05.198Z,143.05
2019-02-28T22:08:36.827Z,112.05
2019-02-28T22:11:03.738Z,133.30
2019-02-28T22:13:30.329Z,129.05
2019-02-28T22:15:56.923Z,132.03
2019-02-28T22:18:23.521Z,133.45
2019-02-28T22:20:50.127Z,141.18
2019-02-28T22:23:16.733Z,153.20
2019-02-28T22:25:43.301Z,165.85
2019-02-28T22:28:09.879Z,155.52
2019-02-28T22:30:56.105Z,185.67
2019-02-28T22:33:40.562Z,114.15
2019-02-28T22:36:08.983Z,131.57
2019-02-28T22:38:35.876Z,139.35
2019-02-28T22:41:02.470Z,138.22
2019-02-28T22:43:29.075Z,124.02
2019-02-28T22:45:55.960Z,115.82
2019-02-28T22:48:22.555Z,107.15
2019-02-28T22:50:49.115Z,116.65
2019-02-28T22:53:15.705Z,133.25
2019-02-28T22:55:42.657Z,125.70
2019-02-28T22:58:09.372Z,112.52
2019-02-28T23:03:24.239Z,113.12
2019-02-28T23:05:50.815Z,123.50
2019-02-28T23:08:17.415Z,119.42
2019-02-28T23:10:43.990Z,138.10
2019-02-28T23:13:10.581Z,142.85
2019-02-28T23:15:37.183Z,144.53
2019-02-28T23:18:03.759Z,139.35
2019-02-28T23:20:30.345Z,154.87
2019-02-28T23:22:56.906Z,155.63
2019-02-28T23:25:23.505Z,120.40
2019-02-28T23:27:50.105Z,161.10
2019-02-28T23:30:43.588Z,135.45
2019-02-28T23:33:14.719Z,126.70
2019-02-28T23:35:43.359Z,123.13
2019-02-28T23:38:09.958Z,122.10
2019-02-28T23:40:36.541Z,125.58
2019-02-28T23:43:03.333Z,108.80
2019-02-28T23:45:29.932Z,94.92
2019-02-28T23:47:56.487Z,101.00
2019-02-28T23:50:23.074Z,87.60
2019-02-28T23:52:49.675Z,92.67
2019-02-28T23:55:16.255Z,97.25
2019-02-28T23:57:42.822Z,106.95
